createdAt,value
2023-02-11T00:00:15.516Z,25.60
2023-02-11T00:02:42.310Z,25.07
2023-02-11T00:05:09.403Z,25.83
2023-02-11T00:07:36.466Z,21.70
2023-02-11T00:10:04.650Z,25.90
2023-02-11T00:12:31.308Z,21.63
2023-02-11T00:14:58.379Z,24.67
2023-02-11T00:17:25.116Z,23.53
2023-02-11T00:19:52.609Z,23.43
2023-02-11T00:22:19.508Z,24.10
2023-02-11T00:24:46.337Z,24.43
2023-02-11T00:27:12.980Z,23.37
2023-02-11T00:29:40.078Z,23.93
2023-02-11T00:32:08.781Z,23.37
2023-02-11T00:34:36.471Z,22.97
2023-02-11T00:37:03.906Z,24.40
2023-02-11T00:39:31.471Z,23.43
2023-02-11T00:41:58.890Z,24.60
2023-02-11T00:44:25.935Z,24.93
2023-02-11T00:46:52.568Z,25.20
2023-02-11T00:49:19.301Z,24.50
2023-02-11T00:51:48.222Z,23.60
2023-02-11T00:54:14.999Z,23.47
2023-02-11T00:56:41.638Z,21.83
2023-02-11T00:59:09.098Z,24.13
2023-02-11T01:01:35.987Z,23.13
2023-02-11T01:04:02.690Z,24.97
2023-02-11T01:06:29.365Z,23.50
2023-02-11T01:08:56.006Z,24.10
2023-02-11T01:11:22.982Z,23.73
2023-02-11T01:13:50.638Z,24.13
2023-02-11T01:16:19.193Z,23.57
2023-02-11T01:18:46.643Z,23.43
2023-02-11T01:21:13.543Z,24.10
2023-02-11T01:23:40.182Z,23.70
2023-02-11T01:26:07.106Z,24.60
2023-02-11T01:28:33.907Z,23.10
2023-02-11T01:31:01.753Z,22.90
2023-02-11T01:33:28.714Z,24.10
2023-02-11T01:35:55.450Z,21.73
2023-02-11T01:38:24.958Z,23.10
2023-02-11T01:40:56.989Z,22.90
2023-02-11T01:43:25.192Z,22.57
2023-02-11T01:45:58.143Z,23.80
2023-02-11T01:48:34.516Z,23.07
2023-02-11T01:51:20.547Z,24.30
2023-02-11T01:54:06.777Z,23.17
2023-02-11T01:56:58.155Z,23.10
2023-02-11T01:59:34.209Z,22.13
2023-02-11T02:02:06.546Z,24.77
2023-02-11T02:04:38.717Z,23.00
2023-02-11T02:07:17.648Z,23.73
2023-02-11T02:09:49.738Z,25.37
2023-02-11T02:12:16.450Z,24.30
2023-02-11T02:14:43.179Z,25.77
2023-02-11T02:17:44.371Z,24.73
2023-02-11T02:20:34.670Z,23.63
2023-02-11T02:23:22.331Z,23.00
2023-02-11T02:26:35.232Z,22.90
2023-02-11T02:29:23.376Z,25.83
2023-02-11T02:32:10.742Z,22.83
2023-02-11T02:35:09.401Z,24.67
2023-02-11T02:38:05.072Z,24.53
2023-02-11T02:40:39.984Z,25.70
2023-02-11T02:43:08.968Z,23.30
2023-02-11T02:45:35.647Z,23.40
2023-02-11T02:48:02.420Z,24.57
2023-02-11T02:50:33.610Z,22.50
2023-02-11T02:53:11.767Z,25.37
2023-02-11T02:56:04.916Z,24.33
2023-02-11T02:58:56.589Z,24.03
2023-02-11T03:01:32.786Z,25.13
2023-02-11T03:04:09.062Z,22.30
2023-02-11T03:07:05.638Z,24.27
2023-02-11T03:09:42.498Z,22.70
2023-02-11T03:12:10.456Z,24.10
2023-02-11T03:14:38.670Z,21.50
2023-02-11T03:17:07.978Z,23.57
2023-02-11T03:19:40.853Z,22.30
2023-02-11T03:22:22.661Z,23.40
2023-02-11T03:24:49.594Z,25.57
2023-02-11T03:27:25.472Z,24.03
2023-02-11T03:30:05.159Z,23.70
2023-02-11T03:32:53.491Z,24.13
2023-02-11T03:35:22.245Z,25.40
2023-02-11T03:37:56.517Z,22.07
2023-02-11T03:40:31.911Z,24.00
2023-02-11T03:43:10.364Z,23.47
2023-02-11T03:45:38.382Z,24.47
2023-02-11T03:48:12.692Z,22.37
2023-02-11T03:50:41.050Z,24.40
2023-02-11T03:53:09.124Z,24.60
2023-02-11T03:55:39.576Z,23.80
2023-02-11T03:58:07.074Z,24.93
2023-02-11T04:00:36.660Z,24.90
2023-02-11T04:03:04.363Z,23.90
2023-02-11T04:05:31.520Z,25.57
2023-02-11T04:07:58.169Z,26.57
2023-02-11T04:10:25.810Z,26.20
2023-02-11T04:12:53.017Z,28.07
2023-02-11T04:15:19.859Z,26.07
2023-02-11T04:17:46.592Z,26.60
2023-02-11T04:20:13.328Z,26.70
2023-02-11T04:22:40.236Z,25.80
2023-02-11T04:25:08.115Z,24.97
2023-02-11T04:27:35.431Z,27.93
2023-02-11T04:30:02.278Z,27.67
2023-02-11T04:32:28.948Z,27.13
2023-02-11T04:34:55.609Z,29.70
2023-02-11T04:37:22.255Z,27.80
2023-02-11T04:39:48.910Z,28.67
2023-02-11T04:42:15.813Z,26.37
2023-02-11T04:44:42.492Z,28.40
2023-02-11T04:47:09.321Z,29.03
2023-02-11T04:49:36.042Z,28.50
2023-02-11T04:52:02.688Z,28.57
2023-02-11T04:54:29.353Z,27.97
2023-02-11T04:56:56.120Z,29.50
2023-02-11T04:59:22.762Z,29.30
2023-02-11T05:01:49.849Z,29.60
2023-02-11T05:04:17.259Z,32.27
2023-02-11T05:06:44.006Z,30.20
2023-02-11T05:09:12.116Z,30.50
2023-02-11T05:11:39.378Z,33.10
2023-02-11T05:14:08.933Z,31.57
2023-02-11T05:16:35.699Z,30.77
2023-02-11T05:19:02.509Z,33.90
2023-02-11T05:21:29.186Z,33.77
2023-02-11T05:23:55.839Z,33.57
2023-02-11T05:26:22.497Z,35.53
2023-02-11T05:28:49.181Z,35.07
2023-02-11T05:31:16.723Z,35.90
2023-02-11T05:33:43.480Z,33.70
2023-02-11T05:36:11.965Z,37.80
2023-02-11T05:38:39.056Z,34.57
2023-02-11T05:41:06.882Z,36.60
2023-02-11T05:43:35.308Z,36.53
2023-02-11T05:46:03.303Z,39.40
2023-02-11T05:48:30.755Z,39.07
2023-02-11T05:50:57.569Z,37.27
2023-02-11T05:53:24.222Z,37.07
2023-02-11T05:55:51.337Z,38.87
2023-02-11T05:58:18.237Z,34.67
2023-02-11T06:00:44.890Z,35.73
2023-02-11T06:03:11.560Z,36.50
2023-02-11T06:05:39.174Z,36.20
2023-02-11T06:08:05.839Z,38.10
2023-02-11T06:10:32.540Z,36.97
2023-02-11T06:12:59.194Z,39.70
2023-02-11T06:15:25.853Z,40.00
2023-02-11T06:17:52.513Z,37.37
2023-02-11T06:20:19.401Z,39.43
2023-02-11T06:22:46.418Z,38.17
2023-02-11T06:25:13.615Z,39.50
2023-02-11T06:27:40.543Z,39.93
2023-02-11T06:30:08.466Z,38.07
2023-02-11T06:32:43.940Z,41.97
2023-02-11T06:35:12.637Z,37.47
2023-02-11T06:37:40.194Z,39.67
2023-02-11T06:40:07.334Z,41.97
2023-02-11T06:42:35.995Z,40.97
2023-02-11T06:45:05.855Z,41.30
2023-02-11T06:47:32.578Z,40.37
2023-02-11T06:49:59.296Z,42.73
2023-02-11T06:52:25.977Z,43.83
2023-02-11T06:54:52.669Z,41.20
2023-02-11T06:57:19.382Z,41.60
2023-02-11T06:59:46.058Z,44.60
2023-02-11T07:02:12.842Z,44.67
2023-02-11T07:04:40.285Z,43.87
2023-02-11T07:07:07.045Z,47.53
2023-02-11T07:09:33.745Z,46.80
2023-02-11T07:12:00.371Z,49.87
2023-02-11T07:14:27.067Z,45.37
2023-02-11T07:16:53.798Z,47.53
2023-02-11T07:19:20.451Z,46.00
2023-02-11T07:21:48.580Z,48.27
2023-02-11T07:24:15.332Z,48.00
2023-02-11T07:26:42.020Z,49.37
2023-02-11T07:29:08.700Z,50.97
2023-02-11T07:31:35.542Z,51.07
2023-02-11T07:34:02.986Z,51.57
2023-02-11T07:36:31.836Z,48.50
2023-02-11T07:38:59.936Z,51.67
2023-02-11T07:41:27.092Z,48.50
2023-02-11T07:43:55.380Z,50.53
2023-02-11T07:46:25.533Z,54.63
2023-02-11T07:48:52.670Z,51.47
2023-02-11T07:51:20.683Z,49.57
2023-02-11T07:53:47.638Z,50.10
2023-02-11T07:56:16.399Z,55.00
2023-02-11T07:58:43.902Z,52.27
2023-02-11T08:01:13.717Z,53.97
2023-02-11T08:03:41.852Z,51.90
2023-02-11T08:06:14.623Z,64.17
2023-02-11T08:08:42.164Z,66.47
2023-02-11T08:11:20.714Z,75.47
2023-02-11T08:13:48.174Z,61.87
2023-02-11T08:16:35.298Z,70.53
2023-02-11T08:19:04.888Z,84.77
2023-02-11T08:21:32.003Z,59.90
2023-02-11T08:23:59.038Z,73.10
2023-02-11T08:26:28.864Z,84.03
2023-02-11T08:28:56.709Z,62.60
2023-02-11T08:31:29.503Z,64.47
2023-02-11T08:33:58.072Z,85.07
2023-02-11T08:36:30.039Z,78.87
2023-02-11T08:39:16.116Z,61.47
2023-02-11T08:41:46.229Z,71.50
2023-02-11T08:44:13.256Z,73.17
2023-02-11T08:46:40.110Z,91.60
2023-02-11T08:49:06.872Z,80.67
2023-02-11T08:51:33.809Z,67.63
2023-02-11T08:54:01.318Z,63.67
2023-02-11T08:56:28.807Z,81.03
2023-02-11T08:58:55.550Z,69.57
2023-02-11T09:01:25.025Z,67.60
2023-02-11T09:03:52.560Z,67.60
2023-02-11T09:06:20.019Z,70.73
2023-02-11T09:08:49.341Z,64.60
2023-02-11T09:11:17.734Z,100.03
2023-02-11T09:13:45.137Z,109.47
2023-02-11T09:16:23.693Z,103.37
2023-02-11T09:18:50.850Z,66.30
2023-02-11T09:21:19.296Z,80.73
2023-02-11T09:23:47.679Z,97.87
2023-02-11T09:26:20.036Z,105.07
2023-02-11T09:28:47.726Z,97.63
2023-02-11T09:31:26.232Z,64.87
2023-02-11T09:33:55.644Z,74.07
2023-02-11T09:36:24.728Z,108.63
2023-02-11T09:38:52.367Z,79.83
2023-02-11T09:41:58.876Z,135.60
2023-02-11T09:44:29.366Z,59.30
2023-02-11T09:47:22.523Z,65.17
2023-02-11T09:50:14.343Z,124.23
2023-02-11T09:52:43.951Z,72.40
2023-02-11T09:55:34.216Z,82.20
2023-02-11T09:58:05.170Z,76.97
2023-02-11T10:00:38.011Z,66.87
2023-02-11T10:03:12.638Z,69.40
2023-02-11T10:06:07.267Z,89.73
2023-02-11T10:08:45.672Z,82.57
2023-02-11T10:11:32.043Z,93.83
2023-02-11T10:14:26.481Z,61.23
2023-02-11T10:17:11.096Z,78.50
2023-02-11T10:19:58.854Z,99.00
2023-02-11T10:22:35.030Z,75.17
2023-02-11T10:25:16.901Z,82.23
2023-02-11T10:27:43.761Z,74.27
2023-02-11T10:30:39.710Z,84.27
2023-02-11T10:33:27.906Z,64.07
2023-02-11T10:35:54.641Z,58.77
2023-02-11T10:38:21.533Z,75.47
2023-02-11T10:40:48.265Z,71.17
2023-02-11T10:43:18.308Z,74.60
2023-02-11T10:45:49.745Z,73.87
2023-02-11T10:48:36.024Z,100.03
2023-02-11T10:51:19.158Z,91.80
2023-02-11T10:53:47.411Z,80.60
2023-02-11T10:56:27.215Z,69.40
2023-02-11T10:59:04.471Z,112.63
2023-02-11T11:01:45.474Z,61.47
2023-02-11T11:04:30.462Z,83.83
2023-02-11T11:07:17.869Z,119.27
2023-02-11T11:09:51.558Z,75.77
2023-02-11T11:12:42.046Z,97.87
2023-02-11T11:15:30.249Z,73.70
2023-02-11T11:18:23.008Z,85.27
2023-02-11T11:21:08.516Z,79.33
2023-02-11T11:23:37.521Z,78.57
2023-02-11T11:26:15.769Z,68.43
2023-02-11T11:28:46.490Z,68.10
2023-02-11T11:31:35.621Z,69.67
2023-02-11T11:34:30.074Z,67.93
2023-02-11T11:36:59.384Z,71.00
2023-02-11T11:39:34.838Z,66.77
2023-02-11T11:42:05.441Z,65.47
2023-02-11T11:44:37.356Z,69.97
2023-02-11T11:47:20.412Z,71.07
2023-02-11T11:50:22.355Z,68.53
2023-02-11T11:53:01.396Z,67.53
2023-02-11T11:55:34.778Z,63.67
2023-02-11T11:58:01.663Z,64.27
2023-02-11T12:00:35.995Z,64.53
2023-02-11T12:03:21.328Z,65.10
2023-02-11T12:06:50.998Z,68.93
2023-02-11T12:09:52.802Z,61.73
2023-02-11T12:12:39.007Z,64.23
2023-02-11T12:15:17.760Z,62.77
2023-02-11T12:17:56.506Z,75.47
2023-02-11T12:20:29.052Z,66.97
2023-02-11T12:23:23.233Z,57.37
2023-02-11T12:26:05.584Z,67.20
2023-02-11T12:29:11.250Z,34.10
2023-02-11T12:31:49.242Z,60.13
2023-02-11T12:34:43.384Z,63.27
2023-02-11T12:37:28.619Z,55.67
2023-02-11T12:40:16.710Z,59.57
2023-02-11T12:43:16.377Z,55.77
2023-02-11T12:45:49.436Z,60.47
2023-02-11T12:48:30.758Z,62.43
2023-02-11T12:51:15.618Z,59.20
2023-02-11T12:54:10.771Z,59.67
2023-02-11T12:56:55.306Z,59.77
2023-02-11T12:59:59.649Z,59.43
2023-02-11T13:02:46.676Z,65.40
2023-02-11T13:05:40.363Z,62.83
2023-02-11T13:08:25.858Z,70.03
2023-02-11T13:10:58.423Z,63.90
2023-02-11T13:13:37.068Z,65.67
2023-02-11T13:16:17.049Z,65.23
2023-02-11T13:19:38.001Z,63.73
2023-02-11T13:22:16.686Z,57.40
2023-02-11T13:24:58.167Z,60.97
2023-02-11T13:28:03.292Z,61.67
2023-02-11T13:30:34.645Z,56.80
2023-02-11T13:33:01.378Z,60.60
2023-02-11T13:35:36.651Z,60.67
2023-02-11T13:38:19.871Z,62.07
2023-02-11T13:40:58.407Z,60.40
2023-02-11T13:43:30.427Z,60.20
2023-02-11T13:46:05.870Z,59.23
2023-02-11T13:48:38.606Z,61.17
2023-02-11T13:51:08.663Z,61.03
2023-02-11T13:53:54.518Z,57.17
2023-02-11T13:56:31.232Z,63.17
2023-02-11T13:59:02.164Z,64.63
2023-02-11T14:02:20.922Z,63.97
2023-02-11T14:05:41.610Z,62.20
2023-02-11T14:08:29.542Z,59.03
2023-02-11T14:11:12.863Z,58.70
2023-02-11T14:13:48.807Z,63.17
2023-02-11T14:16:31.643Z,56.90
2023-02-11T14:19:05.960Z,56.93
2023-02-11T14:21:36.353Z,59.67
2023-02-11T14:24:04.738Z,61.17
2023-02-11T14:26:34.778Z,59.07
2023-02-11T14:29:39.257Z,63.43
2023-02-11T14:32:32.248Z,59.60
2023-02-11T14:35:15.270Z,59.47
2023-02-11T14:37:55.618Z,58.57
2023-02-11T14:40:35.358Z,58.90
2023-02-11T14:43:19.816Z,62.97
2023-02-11T14:45:51.757Z,73.30
2023-02-11T14:48:20.413Z,56.50
2023-02-11T14:50:51.756Z,60.60
2023-02-11T14:53:23.769Z,60.90
2023-02-11T14:55:52.495Z,65.43
2023-02-11T14:58:23.089Z,61.97
2023-02-11T15:01:22.448Z,61.53
2023-02-11T15:03:49.885Z,62.43
2023-02-11T15:06:19.802Z,63.50
2023-02-11T15:08:53.519Z,62.13
2023-02-11T15:11:22.484Z,63.50
2023-02-11T15:13:50.228Z,60.50
2023-02-11T15:16:21.591Z,59.70
2023-02-11T15:18:51.774Z,59.17
2023-02-11T15:21:23.924Z,64.83
2023-02-11T15:24:06.171Z,65.23
2023-02-11T15:26:33.412Z,71.87
2023-02-11T15:29:00.593Z,61.07
2023-02-11T15:31:28.378Z,60.57
2023-02-11T15:33:55.449Z,58.47
2023-02-11T15:36:28.621Z,64.23
2023-02-11T15:39:31.360Z,63.53
2023-02-11T15:42:26.841Z,77.00
2023-02-11T15:45:28.970Z,74.00
2023-02-11T15:48:07.620Z,57.03
2023-02-11T15:50:37.061Z,57.80
2023-02-11T15:53:21.856Z,59.80
2023-02-11T15:55:56.424Z,60.70
2023-02-11T15:58:23.634Z,62.70
2023-02-11T16:00:56.504Z,58.50
2023-02-11T16:03:25.146Z,65.50
2023-02-11T16:05:51.972Z,63.13
2023-02-11T16:08:24.787Z,56.93
2023-02-11T16:10:58.481Z,57.57
2023-02-11T16:13:28.037Z,60.13
2023-02-11T16:16:04.554Z,57.80
2023-02-11T16:18:40.440Z,59.37
2023-02-11T16:21:16.676Z,56.90
2023-02-11T16:23:50.348Z,62.30
2023-02-11T16:26:40.824Z,62.30
2023-02-11T16:29:16.513Z,59.40
2023-02-11T16:31:46.352Z,60.43
2023-02-11T16:34:22.146Z,58.77
2023-02-11T16:36:50.009Z,61.03
2023-02-11T16:39:17.916Z,62.60
2023-02-11T16:41:45.209Z,62.37
2023-02-11T16:44:11.886Z,60.23
2023-02-11T16:46:38.939Z,60.10
2023-02-11T16:49:20.306Z,58.87
2023-02-11T16:51:53.010Z,60.43
2023-02-11T16:54:20.304Z,59.67
2023-02-11T16:56:46.970Z,55.50
2023-02-11T16:59:13.684Z,55.63
2023-02-11T17:01:42.231Z,56.63
2023-02-11T17:04:28.495Z,56.63
2023-02-11T17:06:57.965Z,57.70
2023-02-11T17:09:30.481Z,52.47
2023-02-11T17:11:57.866Z,55.67
2023-02-11T17:14:24.631Z,55.50
2023-02-11T17:16:51.541Z,57.17
2023-02-11T17:19:21.037Z,59.80
2023-02-11T17:21:49.576Z,60.77
2023-02-11T17:24:17.377Z,55.33
2023-02-11T17:26:45.728Z,53.83
2023-02-11T17:29:18.338Z,54.83
2023-02-11T17:31:45.346Z,52.40
2023-02-11T17:34:12.537Z,50.67
2023-02-11T17:36:41.304Z,50.93
2023-02-11T17:39:08.551Z,51.50
2023-02-11T17:41:38.772Z,52.33
2023-02-11T17:44:06.701Z,53.60
2023-02-11T17:46:34.688Z,53.53
2023-02-11T17:49:02.718Z,52.17
2023-02-11T17:51:32.626Z,54.33
2023-02-11T17:54:01.556Z,51.70
2023-02-11T17:56:30.714Z,51.47
2023-02-11T17:58:57.371Z,52.47
2023-02-11T18:01:27.332Z,50.80
2023-02-11T18:03:54.004Z,57.10
2023-02-11T18:06:21.667Z,52.27
2023-02-11T18:08:48.466Z,52.37
2023-02-11T18:11:16.296Z,53.87
2023-02-11T18:13:43.875Z,51.93
2023-02-11T18:16:15.658Z,58.57
2023-02-11T18:18:43.426Z,56.63
2023-02-11T18:21:15.071Z,61.17
2023-02-11T18:23:42.413Z,57.70
2023-02-11T18:26:11.253Z,56.43
2023-02-11T18:28:38.857Z,60.23
2023-02-11T18:31:07.269Z,56.30
2023-02-11T18:33:34.757Z,56.23
2023-02-11T18:36:09.154Z,57.20
2023-02-11T18:38:36.124Z,52.90
2023-02-11T18:41:03.994Z,53.20
2023-02-11T18:43:31.717Z,57.37
2023-02-11T18:45:58.541Z,64.83
2023-02-11T18:48:28.413Z,63.53
2023-02-11T18:50:55.656Z,56.57
2023-02-11T18:53:23.226Z,68.93
2023-02-11T18:55:50.528Z,56.87
2023-02-11T18:58:17.774Z,55.17
2023-02-11T19:00:47.168Z,59.70
2023-02-11T19:03:14.157Z,56.97
2023-02-11T19:05:42.629Z,59.10
2023-02-11T19:08:09.752Z,51.90
2023-02-11T19:10:49.333Z,54.27
2023-02-11T19:13:15.988Z,56.17
2023-02-11T19:15:46.955Z,57.43
2023-02-11T19:18:15.560Z,56.13
2023-02-11T19:20:43.382Z,53.60
2023-02-11T19:23:10.340Z,51.60
2023-02-11T19:25:37.563Z,55.80
2023-02-11T19:28:04.393Z,61.90
2023-02-11T19:30:31.696Z,55.20
2023-02-11T19:32:58.463Z,59.77
2023-02-11T19:35:25.376Z,56.77
2023-02-11T19:37:52.156Z,56.57
2023-02-11T19:40:21.134Z,58.47
2023-02-11T19:42:47.858Z,60.83
2023-02-11T19:45:14.796Z,59.33
2023-02-11T19:47:41.541Z,56.60
2023-02-11T19:50:08.661Z,57.60
2023-02-11T19:52:40.088Z,78.83
2023-02-11T19:55:07.387Z,78.17
2023-02-11T19:57:34.051Z,71.97
2023-02-11T20:00:01.313Z,59.23
2023-02-11T20:02:29.165Z,61.40
2023-02-11T20:04:55.857Z,55.23
2023-02-11T20:07:22.660Z,66.70
2023-02-11T20:09:49.316Z,88.60
2023-02-11T20:12:16.155Z,67.13
2023-02-11T20:14:42.956Z,73.50
2023-02-11T20:17:09.596Z,61.47
2023-02-11T20:19:36.244Z,55.50
2023-02-11T20:22:03.248Z,52.73
2023-02-11T20:24:29.910Z,54.27
2023-02-11T20:26:56.710Z,55.03
2023-02-11T20:29:24.635Z,54.40
2023-02-11T20:31:51.544Z,52.20
2023-02-11T20:34:18.678Z,51.87
2023-02-11T20:36:51.934Z,52.00
2023-02-11T20:39:21.587Z,53.57
2023-02-11T20:41:49.192Z,52.27
2023-02-11T20:44:16.409Z,51.67
2023-02-11T20:46:48.052Z,52.53
2023-02-11T20:49:18.667Z,53.40
2023-02-11T20:51:45.484Z,52.70
2023-02-11T20:54:15.128Z,52.47
2023-02-11T20:56:42.146Z,51.93
2023-02-11T20:59:09.401Z,52.47
2023-02-11T21:01:40.494Z,51.30
2023-02-11T21:04:11.612Z,52.63
2023-02-11T21:06:44.897Z,49.50
2023-02-11T21:09:14.379Z,53.80
2023-02-11T21:11:41.654Z,53.93
2023-02-11T21:14:09.820Z,54.30
2023-02-11T21:16:36.515Z,55.70
2023-02-11T21:19:03.264Z,58.40
2023-02-11T21:21:30.294Z,52.50
2023-02-11T21:23:58.368Z,55.33
2023-02-11T21:26:25.523Z,53.47
2023-02-11T21:28:52.433Z,56.80
2023-02-11T21:31:25.342Z,57.63
2023-02-11T21:33:54.392Z,58.13
2023-02-11T21:36:22.725Z,53.37
2023-02-11T21:38:49.968Z,57.27
2023-02-11T21:41:17.820Z,56.57
2023-02-11T21:43:44.740Z,58.13
2023-02-11T21:46:14.412Z,58.10
2023-02-11T21:48:41.756Z,57.00
2023-02-11T21:51:13.222Z,56.90
2023-02-11T21:53:40.024Z,58.07
2023-02-11T21:56:10.204Z,54.40
2023-02-11T21:58:37.718Z,55.87
2023-02-11T22:01:19.477Z,54.30
2023-02-11T22:03:46.362Z,56.40
2023-02-11T22:06:22.423Z,58.63
2023-02-11T22:08:53.105Z,58.70
2023-02-11T22:11:20.611Z,57.37
2023-02-11T22:13:47.576Z,54.77
2023-02-11T22:16:16.507Z,67.77
2023-02-11T22:18:46.205Z,78.17
2023-02-11T22:21:18.770Z,67.13
2023-02-11T22:23:46.176Z,57.63
2023-02-11T22:26:16.166Z,58.87
2023-02-11T22:28:43.665Z,64.57
2023-02-11T22:31:19.380Z,59.27
2023-02-11T22:33:46.535Z,59.47
2023-02-11T22:36:25.436Z,66.80
2023-02-11T22:38:52.686Z,59.80
2023-02-11T22:41:20.309Z,57.63
2023-02-11T22:43:47.552Z,60.40
2023-02-11T22:46:17.600Z,69.13
2023-02-11T22:48:44.685Z,60.27
2023-02-11T22:51:20.527Z,62.57
2023-02-11T22:53:58.279Z,61.17
2023-02-11T22:56:26.466Z,57.17
2023-02-11T22:58:56.123Z,58.27
2023-02-11T23:01:23.026Z,59.13
2023-02-11T23:03:49.756Z,56.13
2023-02-11T23:06:17.154Z,62.37
2023-02-11T23:08:44.473Z,62.90
2023-02-11T23:11:20.177Z,67.10
2023-02-11T23:13:48.071Z,63.03
2023-02-11T23:16:21.930Z,59.43
2023-02-11T23:18:49.690Z,63.20
2023-02-11T23:21:22.290Z,55.80
2023-02-11T23:23:54.254Z,58.87
2023-02-11T23:26:20.973Z,58.17
2023-02-11T23:28:47.996Z,58.43
2023-02-11T23:31:16.032Z,59.87
2023-02-11T23:33:43.123Z,60.63
2023-02-11T23:36:10.282Z,55.33
2023-02-11T23:38:37.563Z,60.10
2023-02-11T23:41:04.612Z,59.00
2023-02-11T23:43:31.413Z,58.70
2023-02-11T23:45:58.353Z,60.47
2023-02-11T23:48:25.893Z,60.20
2023-02-11T23:50:52.619Z,61.20
2023-02-11T23:53:19.273Z,55.53
2023-02-11T23:55:46.829Z,57.80
2023-02-11T23:58:14.646Z,57.97
